sensor_id;sensor_type;location;lat;lon;timestamp;P1;P2;P0
75812;PMS7003;64450;51.168;16.900;2022-11-20T00:02:12;18;17;9
75812;PMS7003;64450;51.168;16.900;2022-11-20T00:05:13;21;15;10
75812;PMS7003;64450;51.168;16.900;2022-11-20T00:08:14;16;15;11
75812;PMS7003;64450;51.168;16.900;2022-11-20T00:11:23;32;25;16
75812;PMS7003;64450;51.168;16.900;2022-11-20T00:14:25;32;23;15
75812;PMS7003;64450;51.168;16.900;2022-11-20T00:17:26;13;13;9
75812;PMS7003;64450;51.168;16.900;2022-11-20T00:20:27;13;12;7
75812;PMS7003;64450;51.168;16.900;2022-11-20T00:23:28;15;13;8
75812;PMS7003;64450;51.168;16.900;2022-11-20T00:26:29;26;18;12
75812;PMS7003;64450;51.168;16.900;2022-11-20T00:29:30;26;19;11
75812;PMS7003;64450;51.168;16.900;2022-11-20T00:32:38;18;13;9
75812;PMS7003;64450;51.168;16.900;2022-11-20T00:35:38;25;22;13
75812;PMS7003;64450;51.168;16.900;2022-11-20T00:38:39;17;15;8
75812;PMS7003;64450;51.168;16.900;2022-11-20T00:41:41;16;15;9
75812;PMS7003;64450;51.168;16.900;2022-11-20T00:44:41;17;11;7
75812;PMS7003;64450;51.168;16.900;2022-11-20T00:47:42;15;12;6
75812;PMS7003;64450;51.168;16.900;2022-11-20T00:50:43;13;12;3
75812;PMS7003;64450;51.168;16.900;2022-11-20T00:53:57;25;12;8
75812;PMS7003;64450;51.168;16.900;2022-11-20T00:57:02;15;13;10
75812;PMS7003;64450;51.168;16.900;2022-11-20T01:00:03;8;8;3
75812;PMS7003;64450;51.168;16.900;2022-11-20T01:03:04;19;15;9
75812;PMS7003;64450;51.168;16.900;2022-11-20T01:06:06;19;16;10
75812;PMS7003;64450;51.168;16.900;2022-11-20T01:09:15;15;15;9
75812;PMS7003;64450;51.168;16.900;2022-11-20T01:12:16;18;14;9
75812;PMS7003;64450;51.168;16.900;2022-11-20T01:15:17;18;16;10
75812;PMS7003;64450;51.168;16.900;2022-11-20T01:18:17;15;10;6
75812;PMS7003;64450;51.168;16.900;2022-11-20T01:21:19;11;11;9
75812;PMS7003;64450;51.168;16.900;2022-11-20T01:24:22;14;13;8
75812;PMS7003;64450;51.168;16.900;2022-11-20T01:27:23;14;10;6
75812;PMS7003;64450;51.168;16.900;2022-11-20T01:30:31;19;16;11
75812;PMS7003;64450;51.168;16.900;2022-11-20T01:33:32;13;12;7
75812;PMS7003;64450;51.168;16.900;2022-11-20T01:36:33;15;14;10
75812;PMS7003;64450;51.168;16.900;2022-11-20T01:39:35;15;12;8
75812;PMS7003;64450;51.168;16.900;2022-11-20T01:42:36;27;18;11
75812;PMS7003;64450;51.168;16.900;2022-11-20T01:52:17;22;15;11
75812;PMS7003;64450;51.168;16.900;2022-11-20T01:55:25;18;16;10
75812;PMS7003;64450;51.168;16.900;2022-11-20T01:58:32;23;16;10
75812;PMS7003;64450;51.168;16.900;2022-11-20T02:01:36;16;15;10
75812;PMS7003;64450;51.168;16.900;2022-11-20T02:04:49;19;17;11
75812;PMS7003;64450;51.168;16.900;2022-11-20T02:07:55;26;23;13
75812;PMS7003;64450;51.168;16.900;2022-11-20T02:10:58;32;22;14
75812;PMS7003;64450;51.168;16.900;2022-11-20T02:13:58;22;22;13
75812;PMS7003;64450;51.168;16.900;2022-11-20T02:17:00;23;17;10
75812;PMS7003;64450;51.168;16.900;2022-11-20T02:20:10;21;14;11
75812;PMS7003;64450;51.168;16.900;2022-11-20T02:23:17;20;17;11
75812;PMS7003;64450;51.168;16.900;2022-11-20T02:26:23;27;17;8
75812;PMS7003;64450;51.168;16.900;2022-11-20T02:32:49;15;14;9
75812;PMS7003;64450;51.168;16.900;2022-11-20T02:35:50;19;16;9
75812;PMS7003;64450;51.168;16.900;2022-11-20T02:38:51;12;11;8
75812;PMS7003;64450;51.168;16.900;2022-11-20T02:41:52;18;15;10
75812;PMS7003;64450;51.168;16.900;2022-11-20T02:44:58;19;15;9
75812;PMS7003;64450;51.168;16.900;2022-11-20T02:47:59;16;12;9
75812;PMS7003;64450;51.168;16.900;2022-11-20T02:51:00;15;13;9
75812;PMS7003;64450;51.168;16.900;2022-11-20T02:54:01;21;10;5
75812;PMS7003;64450;51.168;16.900;2022-11-20T02:57:02;15;11;6
75812;PMS7003;64450;51.168;16.900;2022-11-20T03:00:04;18;14;10
75812;PMS7003;64450;51.168;16.900;2022-11-20T03:03:06;14;14;8
75812;PMS7003;64450;51.168;16.900;2022-11-20T03:06:15;19;12;8
75812;PMS7003;64450;51.168;16.900;2022-11-20T03:09:17;22;13;7
75812;PMS7003;64450;51.168;16.900;2022-11-20T03:12:18;13;12;8
75812;PMS7003;64450;51.168;16.900;2022-11-20T03:15:18;18;16;7
75812;PMS7003;64450;51.168;16.900;2022-11-20T03:18:19;12;12;8
75812;PMS7003;64450;51.168;16.900;2022-11-20T03:21:20;0;0;0
75812;PMS7003;64450;51.168;16.900;2022-11-20T03:24:21;12;11;8
75812;PMS7003;64450;51.168;16.900;2022-11-20T03:27:33;12;11;7
75812;PMS7003;64450;51.168;16.900;2022-11-20T03:30:35;25;20;9
75812;PMS7003;64450;51.168;16.900;2022-11-20T03:33:36;16;13;9
75812;PMS7003;64450;51.168;16.900;2022-11-20T03:36:37;21;14;11
75812;PMS7003;64450;51.168;16.900;2022-11-20T03:39:39;17;15;10
75812;PMS7003;64450;51.168;16.900;2022-11-20T03:42:40;13;8;6
75812;PMS7003;64450;51.168;16.900;2022-11-20T03:45:47;22;20;11
75812;PMS7003;64450;51.168;16.900;2022-11-20T03:48:52;48;37;19
75812;PMS7003;64450;51.168;16.900;2022-11-20T03:51:53;42;35;22
75812;PMS7003;64450;51.168;16.900;2022-11-20T03:54:54;61;43;24
75812;PMS7003;64450;51.168;16.900;2022-11-20T03:57:55;52;40;25
75812;PMS7003;64450;51.168;16.900;2022-11-20T04:00:56;42;31;22
75812;PMS7003;64450;51.168;16.900;2022-11-20T04:03:57;50;38;24
75812;PMS7003;64450;51.168;16.900;2022-11-20T04:06:58;46;33;21
75812;PMS7003;64450;51.168;16.900;2022-11-20T04:10:08;20;14;3
75812;PMS7003;64450;51.168;16.900;2022-11-20T04:13:09;29;26;17
75812;PMS7003;64450;51.168;16.900;2022-11-20T04:16:10;28;23;13
75812;PMS7003;64450;51.168;16.900;2022-11-20T04:19:11;37;22;14
75812;PMS7003;64450;51.168;16.900;2022-11-20T04:22:15;20;18;8
75812;PMS7003;64450;51.168;16.900;2022-11-20T04:25:15;22;18;12
75812;PMS7003;64450;51.168;16.900;2022-11-20T04:28:16;27;21;8
75812;PMS7003;64450;51.168;16.900;2022-11-20T04:31:25;31;23;14
75812;PMS7003;64450;51.168;16.900;2022-11-20T04:34:28;21;14;11
75812;PMS7003;64450;51.168;16.900;2022-11-20T04:37:29;26;19;10
75812;PMS7003;64450;51.168;16.900;2022-11-20T04:40:30;15;13;6
75812;PMS7003;64450;51.168;16.900;2022-11-20T04:43:31;21;13;8
75812;PMS7003;64450;51.168;16.900;2022-11-20T04:46:34;14;11;6
75812;PMS7003;64450;51.168;16.900;2022-11-20T04:49:39;16;14;12
75812;PMS7003;64450;51.168;16.900;2022-11-20T04:52:45;15;11;7
75812;PMS7003;64450;51.168;16.900;2022-11-20T04:55:46;19;9;5
75812;PMS7003;64450;51.168;16.900;2022-11-20T04:58:47;20;13;8
75812;PMS7003;64450;51.168;16.900;2022-11-20T05:01:47;16;11;7
75812;PMS7003;64450;51.168;16.900;2022-11-20T05:04:48;17;13;8
75812;PMS7003;64450;51.168;16.900;2022-11-20T05:07:49;5;5;3
75812;PMS7003;64450;51.168;16.900;2022-11-20T05:10:50;9;8;4
75812;PMS7003;64450;51.168;16.900;2022-11-20T05:14:00;10;9;5
75812;PMS7003;64450;51.168;16.900;2022-11-20T05:17:01;17;9;5
75812;PMS7003;64450;51.168;16.900;2022-11-20T05:20:02;14;12;7
75812;PMS7003;64450;51.168;16.900;2022-11-20T05:23:03;11;10;4
75812;PMS7003;64450;51.168;16.900;2022-11-20T05:26:04;16;12;8
75812;PMS7003;64450;51.168;16.900;2022-11-20T05:29:09;20;15;11
75812;PMS7003;64450;51.168;16.900;2022-11-20T05:32:10;21;14;9
75812;PMS7003;64450;51.168;16.900;2022-11-20T05:35:16;14;12;9
75812;PMS7003;64450;51.168;16.900;2022-11-20T05:38:17;15;13;8
75812;PMS7003;64450;51.168;16.900;2022-11-20T05:41:19;16;13;9
75812;PMS7003;64450;51.168;16.900;2022-11-20T05:44:20;12;10;7
75812;PMS7003;64450;51.168;16.900;2022-11-20T05:47:21;15;11;7
75812;PMS7003;64450;51.168;16.900;2022-11-20T05:50:22;17;12;7
75812;PMS7003;64450;51.168;16.900;2022-11-20T05:53:23;23;16;9
75812;PMS7003;64450;51.168;16.900;2022-11-20T05:56:32;18;14;9
75812;PMS7003;64450;51.168;16.900;2022-11-20T05:59:33;18;17;9
75812;PMS7003;64450;51.168;16.900;2022-11-20T06:02:34;17;14;10
75812;PMS7003;64450;51.168;16.900;2022-11-20T06:05:36;22;20;12
75812;PMS7003;64450;51.168;16.900;2022-11-20T06:08:37;18;10;8
75812;PMS7003;64450;51.168;16.900;2022-11-20T06:11:38;22;11;8
75812;PMS7003;64450;51.168;16.900;2022-11-20T06:14:38;14;13;9
75812;PMS7003;64450;51.168;16.900;2022-11-20T06:17:51;9;9;6
75812;PMS7003;64450;51.168;16.900;2022-11-20T06:24:01;16;11;9
75812;PMS7003;64450;51.168;16.900;2022-11-20T06:27:02;13;12;5
75812;PMS7003;64450;51.168;16.900;2022-11-20T06:30:03;4;4;3
75812;PMS7003;64450;51.168;16.900;2022-11-20T06:33:10;11;11;6
75812;PMS7003;64450;51.168;16.900;2022-11-20T06:36:11;14;14;9
75812;PMS7003;64450;51.168;16.900;2022-11-20T06:39:14;10;7;6
75812;PMS7003;64450;51.168;16.900;2022-11-20T06:42:15;17;12;7
75812;PMS7003;64450;51.168;16.900;2022-11-20T06:45:16;17;14;9
75812;PMS7003;64450;51.168;16.900;2022-11-20T06:48:16;13;11;6
75812;PMS7003;64450;51.168;16.900;2022-11-20T06:51:17;14;13;7
75812;PMS7003;64450;51.168;16.900;2022-11-20T06:54:26;15;14;8
75812;PMS7003;64450;51.168;16.900;2022-11-20T06:57:27;18;17;12
75812;PMS7003;64450;51.168;16.900;2022-11-20T07:00:27;16;13;9
75812;PMS7003;64450;51.168;16.900;2022-11-20T07:03:28;17;14;6
75812;PMS7003;64450;51.168;16.900;2022-11-20T07:06:29;18;15;8
75812;PMS7003;64450;51.168;16.900;2022-11-20T07:09:30;20;12;5
75812;PMS7003;64450;51.168;16.900;2022-11-20T07:12:31;19;10;5
75812;PMS7003;64450;51.168;16.900;2022-11-20T07:15:42;13;9;7
75812;PMS7003;64450;51.168;16.900;2022-11-20T07:18:43;15;12;8
75812;PMS7003;64450;51.168;16.900;2022-11-20T07:21:43;20;12;7
75812;PMS7003;64450;51.168;16.900;2022-11-20T07:24:44;16;13;7
75812;PMS7003;64450;51.168;16.900;2022-11-20T07:27:45;13;11;7
75812;PMS7003;64450;51.168;16.900;2022-11-20T07:30:52;15;13;10
75812;PMS7003;64450;51.168;16.900;2022-11-20T07:33:54;15;11;9
75812;PMS7003;64450;51.168;16.900;2022-11-20T07:36:59;8;6;5
75812;PMS7003;64450;51.168;16.900;2022-11-20T07:40:00;24;19;9
75812;PMS7003;64450;51.168;16.900;2022-11-20T07:43:00;16;13;9
75812;PMS7003;64450;51.168;16.900;2022-11-20T07:46:01;21;12;9
75812;PMS7003;64450;51.168;16.900;2022-11-20T07:49:04;15;14;8
75812;PMS7003;64450;51.168;16.900;2022-11-20T07:52:05;18;15;10
75812;PMS7003;64450;51.168;16.900;2022-11-20T07:55:06;24;20;10
75812;PMS7003;64450;51.168;16.900;2022-11-20T07:58:15;14;9;5
75812;PMS7003;64450;51.168;16.900;2022-11-20T08:01:16;30;23;13
75812;PMS7003;64450;51.168;16.900;2022-11-20T08:04:16;23;16;9
75812;PMS7003;64450;51.168;16.900;2022-11-20T08:07:17;28;19;11
75812;PMS7003;64450;51.168;16.900;2022-11-20T08:10:18;26;22;14
75812;PMS7003;64450;51.168;16.900;2022-11-20T08:13:19;16;14;12
75812;PMS7003;64450;51.168;16.900;2022-11-20T08:16:33;14;14;9
75812;PMS7003;64450;51.168;16.900;2022-11-20T08:19:38;20;18;10
75812;PMS7003;64450;51.168;16.900;2022-11-20T08:22:39;22;20;11
75812;PMS7003;64450;51.168;16.900;2022-11-20T08:25:40;24;20;16
75812;PMS7003;64450;51.168;16.900;2022-11-20T08:28:40;18;15;7
75812;PMS7003;64450;51.168;16.900;2022-11-20T08:31:41;24;19;14
75812;PMS7003;64450;51.168;16.900;2022-11-20T08:34:43;20;16;8
75812;PMS7003;64450;51.168;16.900;2022-11-20T08:37:47;16;12;9
75812;PMS7003;64450;51.168;16.900;2022-11-20T08:41:00;10;8;5
75812;PMS7003;64450;51.168;16.900;2022-11-20T08:44:14;19;14;9
75812;PMS7003;64450;51.168;16.900;2022-11-20T08:47:15;11;7;3
75812;PMS7003;64450;51.168;16.900;2022-11-20T08:50:21;20;17;10
75812;PMS7003;64450;51.168;16.900;2022-11-20T08:53:21;22;18;11
75812;PMS7003;64450;51.168;16.900;2022-11-20T08:56:22;15;15;7
75812;PMS7003;64450;51.168;16.900;2022-11-20T08:59:23;20;15;9
75812;PMS7003;64450;51.168;16.900;2022-11-20T09:02:24;17;11;7
75812;PMS7003;64450;51.168;16.900;2022-11-20T09:05:25;18;15;10
75812;PMS7003;64450;51.168;16.900;2022-11-20T09:08:26;15;10;6
75812;PMS7003;64450;51.168;16.900;2022-11-20T09:11:37;22;21;13
75812;PMS7003;64450;51.168;16.900;2022-11-20T09:14:37;16;14;9
75812;PMS7003;64450;51.168;16.900;2022-11-20T09:17:38;9;8;6
75812;PMS7003;64450;51.168;16.900;2022-11-20T09:20:39;13;11;7
75812;PMS7003;64450;51.168;16.900;2022-11-20T09:23:40;22;19;8
75812;PMS7003;64450;51.168;16.900;2022-11-20T09:26:41;17;14;7
75812;PMS7003;64450;51.168;16.900;2022-11-20T09:29:42;19;15;10
75812;PMS7003;64450;51.168;16.900;2022-11-20T09:32:52;17;11;6
75812;PMS7003;64450;51.168;16.900;2022-11-20T09:35:53;19;16;8
75812;PMS7003;64450;51.168;16.900;2022-11-20T09:38:54;18;14;7
75812;PMS7003;64450;51.168;16.900;2022-11-20T09:48:29;20;16;11
75812;PMS7003;64450;51.168;16.900;2022-11-20T09:54:59;17;12;9
75812;PMS7003;64450;51.168;16.900;2022-11-20T09:58:02;13;11;7
75812;PMS7003;64450;51.168;16.900;2022-11-20T10:01:17;17;16;9
75812;PMS7003;64450;51.168;16.900;2022-11-20T10:04:20;19;15;9
75812;PMS7003;64450;51.168;16.900;2022-11-20T10:07:23;11;11;7
75812;PMS7003;64450;51.168;16.900;2022-11-20T10:10:42;16;16;8
75812;PMS7003;64450;51.168;16.900;2022-11-20T10:13:52;20;14;8
75812;PMS7003;64450;51.168;16.900;2022-11-20T10:20:19;19;12;7
75812;PMS7003;64450;51.168;16.900;2022-11-20T10:26:49;11;10;7
75812;PMS7003;64450;51.168;16.900;2022-11-20T10:30:00;16;15;9
75812;PMS7003;64450;51.168;16.900;2022-11-20T10:36:24;12;9;7
75812;PMS7003;64450;51.168;16.900;2022-11-20T10:39:33;23;18;11
75812;PMS7003;64450;51.168;16.900;2022-11-20T10:49:11;13;10;6
75812;PMS7003;64450;51.168;16.900;2022-11-20T11:01:54;11;10;4
75812;PMS7003;64450;51.168;16.900;2022-11-20T11:04:54;12;10;6
75812;PMS7003;64450;51.168;16.900;2022-11-20T11:08:01;13;9;4
75812;PMS7003;64450;51.168;16.900;2022-11-20T11:14:17;12;10;7
75812;PMS7003;64450;51.168;16.900;2022-11-20T11:17:28;13;12;7
75812;PMS7003;64450;51.168;16.900;2022-11-20T11:20:31;14;12;7
75812;PMS7003;64450;51.168;16.900;2022-11-20T11:23:34;21;16;10
75812;PMS7003;64450;51.168;16.900;2022-11-20T11:26:37;18;14;8
75812;PMS7003;64450;51.168;16.900;2022-11-20T11:29:37;13;8;5
75812;PMS7003;64450;51.168;16.900;2022-11-20T11:32:49;14;11;7
75812;PMS7003;64450;51.168;16.900;2022-11-20T11:35:51;13;11;7
75812;PMS7003;64450;51.168;16.900;2022-11-20T11:38:57;14;12;8
75812;PMS7003;64450;51.168;16.900;2022-11-20T11:41:59;16;13;9
75812;PMS7003;64450;51.168;16.900;2022-11-20T11:45:01;12;10;5
75812;PMS7003;64450;51.168;16.900;2022-11-20T11:48:10;8;5;2
75812;PMS7003;64450;51.168;16.900;2022-11-20T11:51:11;12;8;5
75812;PMS7003;64450;51.168;16.900;2022-11-20T11:54:16;12;9;6
75812;PMS7003;64450;51.168;16.900;2022-11-20T12:00:48;22;16;11
75812;PMS7003;64450;51.168;16.900;2022-11-20T12:13:39;13;12;6
75812;PMS7003;64450;51.168;16.900;2022-11-20T12:16:46;10;9;7
75812;PMS7003;64450;51.168;16.900;2022-11-20T12:19:47;20;12;8
75812;PMS7003;64450;51.168;16.900;2022-11-20T12:22:55;11;8;6
75812;PMS7003;64450;51.168;16.900;2022-11-20T12:26:06;12;11;6
75812;PMS7003;64450;51.168;16.900;2022-11-20T12:29:20;12;9;5
75812;PMS7003;64450;51.168;16.900;2022-11-20T12:49:02;13;10;6
75812;PMS7003;64450;51.168;16.900;2022-11-20T12:55:23;12;11;9
75812;PMS7003;64450;51.168;16.900;2022-11-20T13:05:03;17;12;8
75812;PMS7003;64450;51.168;16.900;2022-11-20T13:11:25;19;16;11
75812;PMS7003;64450;51.168;16.900;2022-11-20T13:17:49;20;18;12
75812;PMS7003;64450;51.168;16.900;2022-11-20T13:20:57;17;12;10
75812;PMS7003;64450;51.168;16.900;2022-11-20T13:30:24;34;25;16
75812;PMS7003;64450;51.168;16.900;2022-11-20T13:33:28;24;21;12
75812;PMS7003;64450;51.168;16.900;2022-11-20T13:36:32;27;20;13
75812;PMS7003;64450;51.168;16.900;2022-11-20T13:39:36;33;19;13
75812;PMS7003;64450;51.168;16.900;2022-11-20T13:49:00;24;21;14
75812;PMS7003;64450;51.168;16.900;2022-11-20T14:01:46;23;18;13
75812;PMS7003;64450;51.168;16.900;2022-11-20T14:04:49;17;13;8
75812;PMS7003;64450;51.168;16.900;2022-11-20T14:07:53;23;23;14
75812;PMS7003;64450;51.168;16.900;2022-11-20T14:14:24;22;19;13
75812;PMS7003;64450;51.168;16.900;2022-11-20T14:17:31;19;19;12
75812;PMS7003;64450;51.168;16.900;2022-11-20T14:20:36;27;22;15
75812;PMS7003;64450;51.168;16.900;2022-11-20T14:23:39;27;24;16
75812;PMS7003;64450;51.168;16.900;2022-11-20T14:26:43;27;19;13
75812;PMS7003;64450;51.168;16.900;2022-11-20T14:29:48;29;19;11
75812;PMS7003;64450;51.168;16.900;2022-11-20T14:32:51;19;16;9
75812;PMS7003;64450;51.168;16.900;2022-11-20T14:35:57;27;21;16
75812;PMS7003;64450;51.168;16.900;2022-11-20T14:38:58;19;15;10
75812;PMS7003;64450;51.168;16.900;2022-11-20T14:41:59;19;18;10
75812;PMS7003;64450;51.168;16.900;2022-11-20T14:45:01;20;18;13
75812;PMS7003;64450;51.168;16.900;2022-11-20T14:48:03;33;18;15
75812;PMS7003;64450;51.168;16.900;2022-11-20T14:51:04;31;26;15
75812;PMS7003;64450;51.168;16.900;2022-11-20T15:00:26;19;17;10
75812;PMS7003;64450;51.168;16.900;2022-11-20T15:06:49;31;24;18
75812;PMS7003;64450;51.168;16.900;2022-11-20T15:13:06;25;14;8
75812;PMS7003;64450;51.168;16.900;2022-11-20T15:16:19;24;19;10
75812;PMS7003;64450;51.168;16.900;2022-11-20T15:19:22;15;11;7
75812;PMS7003;64450;51.168;16.900;2022-11-20T15:22:25;19;15;10
75812;PMS7003;64450;51.168;16.900;2022-11-20T15:25:34;23;16;9
75812;PMS7003;64450;51.168;16.900;2022-11-20T15:31:42;28;25;13
75812;PMS7003;64450;51.168;16.900;2022-11-20T15:34:45;31;27;17
75812;PMS7003;64450;51.168;16.900;2022-11-20T15:37:45;24;18;11
75812;PMS7003;64450;51.168;16.900;2022-11-20T15:40:55;36;20;12
75812;PMS7003;64450;51.168;16.900;2022-11-20T15:43:56;25;18;14
75812;PMS7003;64450;51.168;16.900;2022-11-20T15:46:57;35;27;15
75812;PMS7003;64450;51.168;16.900;2022-11-20T15:49:58;33;27;17
75812;PMS7003;64450;51.168;16.900;2022-11-20T15:52:59;41;27;18
75812;PMS7003;64450;51.168;16.900;2022-11-20T15:56:00;31;28;19
75812;PMS7003;64450;51.168;16.900;2022-11-20T15:59:01;33;26;16
75812;PMS7003;64450;51.168;16.900;2022-11-20T16:02:11;28;23;13
75812;PMS7003;64450;51.168;16.900;2022-11-20T16:05:13;20;18;11
75812;PMS7003;64450;51.168;16.900;2022-11-20T16:08:16;36;27;12
75812;PMS7003;64450;51.168;16.900;2022-11-20T16:11:17;25;20;14
75812;PMS7003;64450;51.168;16.900;2022-11-20T16:14:19;27;17;8
75812;PMS7003;64450;51.168;16.900;2022-11-20T16:17:32;28;21;11
75812;PMS7003;64450;51.168;16.900;2022-11-20T16:20:45;28;21;13
75812;PMS7003;64450;51.168;16.900;2022-11-20T16:23:47;25;24;15
75812;PMS7003;64450;51.168;16.900;2022-11-20T16:26:48;22;16;8
75812;PMS7003;64450;51.168;16.900;2022-11-20T16:29:49;26;18;10
75812;PMS7003;64450;51.168;16.900;2022-11-20T16:32:54;25;19;12
75812;PMS7003;64450;51.168;16.900;2022-11-20T16:35:55;15;14;10
75812;PMS7003;64450;51.168;16.900;2022-11-20T16:38:56;18;15;11
75812;PMS7003;64450;51.168;16.900;2022-11-20T16:42:03;21;13;7
75812;PMS7003;64450;51.168;16.900;2022-11-20T16:45:05;21;17;9
75812;PMS7003;64450;51.168;16.900;2022-11-20T16:48:15;23;20;14
75812;PMS7003;64450;51.168;16.900;2022-11-20T16:51:16;24;21;13
75812;PMS7003;64450;51.168;16.900;2022-11-20T16:54:17;16;14;11
75812;PMS7003;64450;51.168;16.900;2022-11-20T16:57:18;38;29;16
75812;PMS7003;64450;51.168;16.900;2022-11-20T17:00:19;33;29;20
75812;PMS7003;64450;51.168;16.900;2022-11-20T17:03:19;28;22;15
75812;PMS7003;64450;51.168;16.900;2022-11-20T17:06:21;35;28;18
75812;PMS7003;64450;51.168;16.900;2022-11-20T17:09:32;60;44;26
75812;PMS7003;64450;51.168;16.900;2022-11-20T17:12:33;49;39;23
75812;PMS7003;64450;51.168;16.900;2022-11-20T17:15:34;42;32;21
75812;PMS7003;64450;51.168;16.900;2022-11-20T17:18:35;25;23;13
75812;PMS7003;64450;51.168;16.900;2022-11-20T17:21:36;42;34;22
75812;PMS7003;64450;51.168;16.900;2022-11-20T17:24:39;39;32;20
75812;PMS7003;64450;51.168;16.900;2022-11-20T18:12:37;11;7;4
75812;PMS7003;64450;51.168;16.900;2022-11-20T18:15:38;12;8;5
75812;PMS7003;64450;51.168;16.900;2022-11-20T18:18:39;23;19;12
75812;PMS7003;64450;51.168;16.900;2022-11-20T18:21:40;18;16;10
75812;PMS7003;64450;51.168;16.900;2022-11-20T18:24:41;24;17;11
75812;PMS7003;64450;51.168;16.900;2022-11-20T18:27:42;26;18;12
75812;PMS7003;64450;51.168;16.900;2022-11-20T18:30:43;28;21;14
75812;PMS7003;64450;51.168;16.900;2022-11-20T18:33:53;26;21;13
75812;PMS7003;64450;51.168;16.900;2022-11-20T18:36:55;28;18;14
75812;PMS7003;64450;51.168;16.900;2022-11-20T18:39:56;27;24;17
75812;PMS7003;64450;51.168;16.900;2022-11-20T18:42:57;37;27;14
75812;PMS7003;64450;51.168;16.900;2022-11-20T18:46:10;24;21;15
75812;PMS7003;64450;51.168;16.900;2022-11-20T18:49:15;22;19;13
75812;PMS7003;64450;51.168;16.900;2022-11-20T18:52:21;20;19;10
75812;PMS7003;64450;51.168;16.900;2022-11-20T18:55:23;11;11;7
75812;PMS7003;64450;51.168;16.900;2022-11-20T18:58:26;12;11;7
75812;PMS7003;64450;51.168;16.900;2022-11-20T19:01:27;21;12;9
75812;PMS7003;64450;51.168;16.900;2022-11-20T19:04:37;19;14;10
75812;PMS7003;64450;51.168;16.900;2022-11-20T19:07:38;13;11;8
75812;PMS7003;64450;51.168;16.900;2022-11-20T19:10:39;15;10;6
75812;PMS7003;64450;51.168;16.900;2022-11-20T19:13:40;16;11;7
75812;PMS7003;64450;51.168;16.900;2022-11-20T19:16:41;22;16;7
75812;PMS7003;64450;51.168;16.900;2022-11-20T19:19:42;21;15;10
75812;PMS7003;64450;51.168;16.900;2022-11-20T19:22:44;16;13;11
75812;PMS7003;64450;51.168;16.900;2022-11-20T19:25:57;22;18;10
75812;PMS7003;64450;51.168;16.900;2022-11-20T19:28:59;24;15;9
75812;PMS7003;64450;51.168;16.900;2022-11-20T19:32:00;23;20;12
75812;PMS7003;64450;51.168;16.900;2022-11-20T19:35:04;25;19;13
75812;PMS7003;64450;51.168;16.900;2022-11-20T19:38:05;19;18;9
75812;PMS7003;64450;51.168;16.900;2022-11-20T19:41:15;25;21;14
75812;PMS7003;64450;51.168;16.900;2022-11-20T19:44:17;24;19;11
75812;PMS7003;64450;51.168;16.900;2022-11-20T19:47:18;17;15;11
75812;PMS7003;64450;51.168;16.900;2022-11-20T19:50:19;18;18;11
75812;PMS7003;64450;51.168;16.900;2022-11-20T19:53:20;27;23;15
75812;PMS7003;64450;51.168;16.900;2022-11-20T19:56:21;27;22;15
75812;PMS7003;64450;51.168;16.900;2022-11-20T19:59:22;22;21;9
75812;PMS7003;64450;51.168;16.900;2022-11-20T20:02:30;21;13;10
75812;PMS7003;64450;51.168;16.900;2022-11-20T20:05:32;16;10;7
75812;PMS7003;64450;51.168;16.900;2022-11-20T20:08:33;21;12;5
75812;PMS7003;64450;51.168;16.900;2022-11-20T20:11:34;22;19;12
75812;PMS7003;64450;51.168;16.900;2022-11-20T20:14:36;19;17;11
75812;PMS7003;64450;51.168;16.900;2022-11-20T20:17:37;19;18;12
75812;PMS7003;64450;51.168;16.900;2022-11-20T20:20:38;30;25;16
75812;PMS7003;64450;51.168;16.900;2022-11-20T20:23:48;29;26;18
75812;PMS7003;64450;51.168;16.900;2022-11-20T20:26:52;27;22;12
75812;PMS7003;64450;51.168;16.900;2022-11-20T20:29:53;18;14;11
75812;PMS7003;64450;51.168;16.900;2022-11-20T20:32:53;14;10;7
75812;PMS7003;64450;51.168;16.900;2022-11-20T20:35:54;26;23;13
75812;PMS7003;64450;51.168;16.900;2022-11-20T20:38:55;32;23;14
75812;PMS7003;64450;51.168;16.900;2022-11-20T20:42:02;31;23;13
75812;PMS7003;64450;51.168;16.900;2022-11-20T20:45:07;29;23;12
75812;PMS7003;64450;51.168;16.900;2022-11-20T20:48:10;29;22;9
75812;PMS7003;64450;51.168;16.900;2022-11-20T20:51:11;51;35;21
75812;PMS7003;64450;51.168;16.900;2022-11-20T20:54:11;37;29;16
75812;PMS7003;64450;51.168;16.900;2022-11-20T20:57:12;40;28;19
75812;PMS7003;64450;51.168;16.900;2022-11-20T21:00:13;35;29;16
75812;PMS7003;64450;51.168;16.900;2022-11-20T21:03:15;31;26;16
75812;PMS7003;64450;51.168;16.900;2022-11-20T21:06:23;29;20;8
75812;PMS7003;64450;51.168;16.900;2022-11-20T21:09:24;36;24;16
75812;PMS7003;64450;51.168;16.900;2022-11-20T21:12:25;23;21;13
75812;PMS7003;64450;51.168;16.900;2022-11-20T21:15:26;30;24;12
75812;PMS7003;64450;51.168;16.900;2022-11-20T21:18:27;40;31;19
75812;PMS7003;64450;51.168;16.900;2022-11-20T21:21:28;53;36;20
75812;PMS7003;64450;51.168;16.900;2022-11-20T21:24:41;44;35;24
75812;PMS7003;64450;51.168;16.900;2022-11-20T21:27:46;33;26;17
75812;PMS7003;64450;51.168;16.900;2022-11-20T21:30:47;43;30;19
75812;PMS7003;64450;51.168;16.900;2022-11-20T21:33:49;38;28;19
75812;PMS7003;64450;51.168;16.900;2022-11-20T21:36:51;37;29;18
75812;PMS7003;64450;51.168;16.900;2022-11-20T21:39:52;33;24;18
75812;PMS7003;64450;51.168;16.900;2022-11-20T21:42:53;48;28;16
75812;PMS7003;64450;51.168;16.900;2022-11-20T21:45:58;32;29;18
75812;PMS7003;64450;51.168;16.900;2022-11-20T21:49:02;28;25;18
75812;PMS7003;64450;51.168;16.900;2022-11-20T21:52:03;43;33;19
75812;PMS7003;64450;51.168;16.900;2022-11-20T21:55:05;36;31;22
75812;PMS7003;64450;51.168;16.900;2022-11-20T21:58:06;27;25;17
75812;PMS7003;64450;51.168;16.900;2022-11-20T22:01:10;32;28;18
75812;PMS7003;64450;51.168;16.900;2022-11-20T22:04:24;34;30;19
75812;PMS7003;64450;51.168;16.900;2022-11-20T22:07:25;40;32;19
75812;PMS7003;64450;51.168;16.900;2022-11-20T22:10:25;39;30;18
75812;PMS7003;64450;51.168;16.900;2022-11-20T22:13:27;48;33;16
75812;PMS7003;64450;51.168;16.900;2022-11-20T22:16:40;43;34;21
75812;PMS7003;64450;51.168;16.900;2022-11-20T22:19:46;33;26;17
75812;PMS7003;64450;51.168;16.900;2022-11-20T22:22:46;43;33;20
75812;PMS7003;64450;51.168;16.900;2022-11-20T22:25:47;38;30;18
75812;PMS7003;64450;51.168;16.900;2022-11-20T22:28:49;32;28;18
75812;PMS7003;64450;51.168;16.900;2022-11-20T22:31:51;29;27;16
75812;PMS7003;64450;51.168;16.900;2022-11-20T22:34:52;38;29;17